createdAt,value
2022-12-24T00:00:58.355Z,96472.47
2022-12-24T00:03:24.898Z,96459.31
2022-12-24T00:05:51.319Z,96447.97
2022-12-24T00:08:17.733Z,96442.34
2022-12-24T00:10:44.112Z,96425.13
2022-12-24T00:13:10.495Z,96424.13
2022-12-24T00:15:36.842Z,96404.53
2022-12-24T00:18:03.211Z,96403.09
2022-12-24T00:20:29.601Z,96404.69
2022-12-24T00:22:55.982Z,96393.78
2022-12-24T00:25:22.352Z,96384.69
2022-12-24T00:27:48.726Z,96380.22
2022-12-24T00:30:15.086Z,96386.09
2022-12-24T00:32:41.509Z,96389.94
2022-12-24T00:35:07.928Z,96389.13
2022-12-24T00:37:34.316Z,96398.63
2022-12-24T00:40:00.640Z,96386.50
2022-12-24T00:42:27.028Z,96388.09
2022-12-24T00:44:53.380Z,96397.00
2022-12-24T00:47:19.747Z,96397.41
2022-12-24T00:49:46.181Z,96402.91
2022-12-24T00:52:12.551Z,96410.56
2022-12-24T00:54:38.941Z,96417.44
2022-12-24T00:57:05.383Z,96422.69
2022-12-24T00:59:31.836Z,96428.75
2022-12-24T01:01:58.284Z,96429.56
2022-12-24T01:04:43.829Z,96432.00
2022-12-24T01:07:10.230Z,96432.56
2022-12-24T01:09:36.603Z,96447.09
2022-12-24T01:12:02.932Z,96444.72
2022-12-24T01:14:29.322Z,96449.97
2022-12-24T01:16:55.689Z,96453.22
2022-12-24T01:19:22.104Z,96452.00
2022-12-24T01:21:48.466Z,96458.88
2022-12-24T01:24:15.099Z,96456.84
2022-12-24T01:26:41.449Z,96457.25
2022-12-24T01:29:07.869Z,96456.84
2022-12-24T01:31:34.331Z,96458.66
2022-12-24T01:34:00.793Z,96449.13
2022-12-24T01:36:27.207Z,96472.44
2022-12-24T01:38:53.617Z,96469.81
2022-12-24T01:41:38.836Z,96469.56
2022-12-24T01:44:05.230Z,96468.97
2022-12-24T01:46:31.612Z,96478.06
2022-12-24T01:48:58.133Z,96477.69
2022-12-24T01:51:24.500Z,96478.72
2022-12-24T01:53:50.935Z,96479.88
2022-12-24T01:56:17.367Z,96487.34
2022-12-24T01:58:43.709Z,96504.09
2022-12-24T02:01:10.170Z,96516.66
2022-12-24T02:03:36.635Z,96518.81
2022-12-24T02:06:03.239Z,96538.41
2022-12-24T02:08:40.060Z,96546.06
2022-12-24T02:11:06.608Z,96559.44
2022-12-24T02:13:32.993Z,96571.00
2022-12-24T02:15:59.386Z,96576.81
2022-12-24T02:18:25.839Z,96580.44
2022-12-24T02:20:52.197Z,96588.09
2022-12-24T02:23:18.576Z,96596.66
2022-12-24T02:25:45.067Z,96610.81
2022-12-24T02:28:11.422Z,96603.94
2022-12-24T02:30:37.748Z,96611.00
2022-12-24T02:33:04.120Z,96613.06
2022-12-24T02:35:30.480Z,96618.06
2022-12-24T02:37:57.681Z,96628.41
2022-12-24T02:40:24.039Z,96613.59
2022-12-24T02:42:50.421Z,96606.31
2022-12-24T02:45:16.847Z,96607.94
2022-12-24T02:47:43.245Z,96608.91
2022-12-24T02:50:09.632Z,96613.56
2022-12-24T02:52:36.026Z,96624.44
2022-12-24T02:55:02.411Z,96634.75
2022-12-24T02:57:28.813Z,96621.97
2022-12-24T02:59:55.168Z,96626.41
2022-12-24T03:02:21.637Z,96631.59
2022-12-24T03:04:48.057Z,96634.41
2022-12-24T03:07:15.443Z,96637.50
2022-12-24T03:09:41.814Z,96642.81
2022-12-24T03:12:08.246Z,96656.75
2022-12-24T03:14:34.866Z,96660.63
2022-12-24T03:17:01.228Z,96672.97
2022-12-24T03:19:27.669Z,96669.94
2022-12-24T03:21:53.990Z,96669.13
2022-12-24T03:24:20.359Z,96671.97
2022-12-24T03:26:46.924Z,96674.47
2022-12-24T03:29:13.329Z,96668.94
2022-12-24T03:31:39.769Z,96665.88
2022-12-24T03:34:06.204Z,96655.72
2022-12-24T03:36:32.629Z,96660.84
2022-12-24T03:38:59.024Z,96658.22
2022-12-24T03:41:25.376Z,96647.81
2022-12-24T03:43:51.765Z,96650.56
2022-12-24T03:46:18.220Z,96658.22
2022-12-24T03:48:44.675Z,96637.56
2022-12-24T03:51:11.063Z,96623.81
2022-12-24T03:53:37.429Z,96629.94
2022-12-24T03:56:03.803Z,96628.09
2022-12-24T03:58:30.215Z,96616.19
2022-12-24T04:00:56.663Z,96622.69
2022-12-24T04:03:23.191Z,96613.97
2022-12-24T04:05:49.598Z,96598.44
2022-12-24T04:08:16.001Z,96597.03
2022-12-24T04:10:42.319Z,96596.59
2022-12-24T04:13:12.407Z,96593.53
2022-12-24T04:15:38.787Z,96588.94
2022-12-24T04:18:05.186Z,96592.31
2022-12-24T04:20:31.539Z,96607.63
2022-12-24T04:22:58.050Z,96602.00
2022-12-24T04:25:24.444Z,96607.25
2022-12-24T04:27:51.085Z,96604.44
2022-12-24T04:30:17.397Z,96598.34
2022-12-24T04:32:43.813Z,96607.81
2022-12-24T04:35:10.170Z,96603.94
2022-12-24T04:37:36.685Z,96603.19
2022-12-24T04:40:03.154Z,96607.81
2022-12-24T04:42:29.557Z,96599.94
2022-12-24T04:44:55.989Z,96603.31
2022-12-24T04:47:22.391Z,96603.72
2022-12-24T04:49:48.812Z,96618.06
2022-12-24T04:52:15.713Z,96614.22
2022-12-24T04:54:42.101Z,96611.59
2022-12-24T04:57:08.491Z,96617.06
2022-12-24T04:59:34.860Z,96631.59
2022-12-24T05:02:01.441Z,96629.84
2022-12-24T05:04:27.903Z,96635.06
2022-12-24T05:06:54.291Z,96638.69
2022-12-24T05:09:20.683Z,96634.16
2022-12-24T05:11:47.051Z,96632.22
2022-12-24T05:14:13.465Z,96625.06
2022-12-24T05:16:39.889Z,96631.09
2022-12-24T05:19:06.332Z,96642.22
2022-12-24T05:21:32.755Z,96647.38
2022-12-24T05:24:17.640Z,96662.56
2022-12-24T05:26:44.254Z,96663.19
2022-12-24T05:29:12.290Z,96663.78
2022-12-24T05:31:40.262Z,96667.25
2022-12-24T05:34:06.680Z,96671.53
2022-12-24T05:36:33.068Z,96665.78
2022-12-24T05:38:59.458Z,96670.31
2022-12-24T05:41:25.811Z,96667.72
2022-12-24T05:43:52.237Z,96668.97
2022-12-24T05:46:19.105Z,96673.78
2022-12-24T05:48:45.639Z,96673.75
2022-12-24T05:51:12.075Z,96686.69
2022-12-24T05:53:38.513Z,96688.56
2022-12-24T05:56:04.896Z,96694.41
2022-12-24T05:58:31.507Z,96690.88
2022-12-24T06:00:57.896Z,96700.19
2022-12-24T06:03:24.361Z,96705.78
2022-12-24T06:05:50.773Z,96706.88
2022-12-24T06:08:17.220Z,96712.50
2022-12-24T06:10:43.577Z,96714.25
2022-12-24T06:13:09.979Z,96722.78
2022-12-24T06:15:36.424Z,96726.84
2022-12-24T06:18:03.339Z,96735.47
2022-12-24T06:20:30.054Z,96744.41
2022-12-24T06:22:56.441Z,96740.88
2022-12-24T06:25:25.555Z,96760.59
2022-12-24T06:27:52.016Z,96763.22
2022-12-24T06:30:18.758Z,96786.56
2022-12-24T06:32:45.353Z,96795.16
2022-12-24T06:35:12.332Z,96809.78
2022-12-24T06:37:38.725Z,96820.47
2022-12-24T06:40:05.095Z,96839.22
2022-12-24T06:42:31.485Z,96854.13
2022-12-24T06:45:02.148Z,96857.13
2022-12-24T06:47:32.032Z,96884.59
2022-12-24T06:49:58.419Z,96884.59
2022-12-24T06:52:25.048Z,96894.38
2022-12-24T06:54:51.438Z,96914.66
2022-12-24T06:57:21.953Z,96917.56
2022-12-24T06:59:48.351Z,96934.47
2022-12-24T07:02:14.823Z,96953.09
2022-12-24T07:04:41.284Z,96960.47
2022-12-24T07:07:07.629Z,96970.69
2022-12-24T07:09:34.340Z,96996.50
2022-12-24T07:12:00.664Z,97013.50
2022-12-24T07:14:27.085Z,97025.66
2022-12-24T07:16:58.705Z,97022.63
2022-12-24T07:19:25.665Z,97023.56
2022-12-24T07:21:52.036Z,97018.31
2022-12-24T07:24:18.577Z,97011.66
2022-12-24T07:26:44.979Z,97004.63
2022-12-24T07:29:11.387Z,97009.88
2022-12-24T07:31:37.814Z,97010.16
2022-12-24T07:34:04.335Z,97006.28
2022-12-24T07:36:30.730Z,96999.03
2022-12-24T07:38:57.135Z,97004.81
2022-12-24T07:41:23.548Z,97003.50
2022-12-24T07:43:49.948Z,96997.25
2022-12-24T07:46:16.407Z,96993.81
2022-12-24T07:48:42.833Z,96989.88
2022-12-24T07:51:09.376Z,96978.41
2022-12-24T07:53:35.795Z,96979.25
2022-12-24T07:56:06.166Z,96962.94
2022-12-24T07:58:35.403Z,96959.41
2022-12-24T08:01:01.827Z,96956.66
2022-12-24T08:03:28.314Z,96955.13
2022-12-24T08:05:54.955Z,96961.03
2022-12-24T08:08:21.650Z,96957.56
2022-12-24T08:10:48.078Z,96950.81
2022-12-24T08:13:14.606Z,96952.97
2022-12-24T08:15:40.958Z,96940.53
2022-12-24T08:18:07.346Z,96934.56
2022-12-24T08:20:33.751Z,96930.28
2022-12-24T08:23:00.153Z,96923.41
2022-12-24T08:25:26.520Z,96933.06
2022-12-24T08:27:52.922Z,96938.16
2022-12-24T08:30:21.410Z,96934.41
2022-12-24T08:32:48.159Z,96939.63
2022-12-24T08:35:14.508Z,96936.56
2022-12-24T08:37:40.886Z,96933.88
2022-12-24T08:40:07.234Z,96931.31
2022-12-24T08:42:33.657Z,96944.53
2022-12-24T08:45:00.048Z,96949.41
2022-12-24T08:47:26.443Z,96954.56
2022-12-24T08:49:52.889Z,96954.66
2022-12-24T08:52:19.272Z,96958.75
2022-12-24T08:54:45.611Z,96962.63
2022-12-24T08:57:12.269Z,96958.09
2022-12-24T08:59:38.610Z,96962.19
2022-12-24T09:02:05.139Z,96972.16
2022-12-24T09:04:31.604Z,96982.00
2022-12-24T09:06:58.019Z,96982.28
2022-12-24T09:09:24.684Z,96982.44
2022-12-24T09:11:51.421Z,97011.44
2022-12-24T09:14:17.773Z,97030.09
2022-12-24T09:16:44.143Z,97056.31
2022-12-24T09:19:10.605Z,97073.34
2022-12-24T09:21:36.956Z,97088.19
2022-12-24T09:24:03.340Z,97110.88
2022-12-24T09:26:31.452Z,97125.34
2022-12-24T09:28:57.891Z,97134.47
2022-12-24T09:31:24.337Z,97143.22
2022-12-24T09:33:53.140Z,97156.25
2022-12-24T09:36:19.528Z,97167.84
2022-12-24T09:38:45.917Z,97194.97
2022-12-24T09:41:13.593Z,97209.72
2022-12-24T09:43:40.005Z,97229.06
2022-12-24T09:46:06.712Z,97253.94
2022-12-24T09:48:33.112Z,97270.44
2022-12-24T09:50:59.492Z,97284.19
2022-12-24T09:53:25.887Z,97289.13
2022-12-24T09:55:52.598Z,97293.63
2022-12-24T09:58:20.395Z,97296.75
2022-12-24T10:00:50.079Z,97304.97
2022-12-24T10:03:17.008Z,97307.13
2022-12-24T10:05:43.391Z,97311.38
2022-12-24T10:08:09.839Z,97312.50
2022-12-24T10:10:36.208Z,97307.38
2022-12-24T10:13:02.587Z,97296.53
2022-12-24T10:15:29.056Z,97294.69
2022-12-24T10:17:55.481Z,97293.03
2022-12-24T10:20:21.834Z,97300.72
2022-12-24T10:22:48.201Z,97303.63
2022-12-24T10:25:14.575Z,97296.44
2022-12-24T10:27:41.139Z,97299.94
2022-12-24T10:30:10.355Z,97294.19
2022-12-24T10:32:39.695Z,97295.09
2022-12-24T10:35:06.031Z,97286.31
2022-12-24T10:37:32.935Z,97292.00
2022-12-24T10:39:59.289Z,97294.94
2022-12-24T10:42:25.670Z,97297.53
2022-12-24T10:44:52.021Z,97295.25
2022-12-24T10:47:19.081Z,97291.19
2022-12-24T10:49:45.537Z,97290.22
2022-12-24T10:52:12.024Z,97271.53
2022-12-24T10:54:41.396Z,97269.59
2022-12-24T10:57:07.842Z,97271.00
2022-12-24T10:59:34.258Z,97270.13
2022-12-24T11:02:00.858Z,97258.59
2022-12-24T11:04:27.897Z,97241.72
2022-12-24T11:06:54.288Z,97222.84
2022-12-24T11:09:20.652Z,97226.00
2022-12-24T11:11:47.030Z,97212.84
2022-12-24T11:14:13.404Z,97202.88
2022-12-24T11:16:39.777Z,97201.97
2022-12-24T11:19:06.194Z,97185.41
2022-12-24T11:21:32.607Z,97173.16
2022-12-24T11:23:59.038Z,97172.34
2022-12-24T11:26:25.486Z,97163.53
2022-12-24T11:28:51.891Z,97147.47
2022-12-24T11:31:18.331Z,97142.22
2022-12-24T11:33:44.782Z,97132.06
2022-12-24T11:36:11.192Z,97133.78
2022-12-24T11:38:38.092Z,97128.81
2022-12-24T11:41:04.520Z,97125.47
2022-12-24T11:43:44.476Z,97130.19
2022-12-24T11:46:11.221Z,97140.06
2022-12-24T11:48:37.593Z,97143.44
2022-12-24T11:51:03.951Z,97138.97
2022-12-24T11:53:30.336Z,97151.31
2022-12-24T11:55:56.733Z,97154.19
2022-12-24T11:58:23.140Z,97170.19
2022-12-24T12:00:49.557Z,97155.19
2022-12-24T12:03:15.983Z,97162.91
2022-12-24T12:05:42.447Z,97171.72
2022-12-24T12:08:08.855Z,97164.84
2022-12-24T12:10:35.277Z,97180.34
2022-12-24T12:13:01.675Z,97178.50
2022-12-24T12:15:28.085Z,97165.09
2022-12-24T12:17:54.758Z,97167.66
2022-12-24T12:20:21.112Z,97175.78
2022-12-24T12:22:47.533Z,97153.06
2022-12-24T12:25:13.933Z,97146.63
2022-12-24T12:27:40.336Z,97126.47
2022-12-24T12:30:07.147Z,97124.16
2022-12-24T12:32:33.574Z,97127.44
2022-12-24T12:35:01.513Z,97122.38
2022-12-24T12:37:27.897Z,97116.81
2022-12-24T12:39:55.262Z,97123.75
2022-12-24T12:42:23.848Z,97118.22
2022-12-24T12:44:50.276Z,97104.81
2022-12-24T12:47:17.463Z,97101.59
2022-12-24T12:49:44.242Z,97099.03
2022-12-24T12:52:10.688Z,97094.75
2022-12-24T12:54:37.243Z,97092.13
2022-12-24T12:57:03.598Z,97089.13
2022-12-24T12:59:29.993Z,97090.16
2022-12-24T13:01:56.478Z,97088.53
2022-12-24T13:04:23.004Z,97083.53
2022-12-24T13:06:49.370Z,97084.78
2022-12-24T13:09:15.776Z,97080.63
2022-12-24T13:11:42.152Z,97081.47
2022-12-24T13:14:08.533Z,97086.09
2022-12-24T13:16:35.049Z,97078.28
2022-12-24T13:19:01.454Z,97084.88
2022-12-24T13:21:27.907Z,97075.22
2022-12-24T13:23:54.292Z,97087.59
2022-12-24T13:26:20.749Z,97101.16
2022-12-24T13:28:47.173Z,97102.53
2022-12-24T13:31:13.626Z,97107.16
2022-12-24T13:33:40.223Z,97112.59
2022-12-24T13:36:06.646Z,97116.94
2022-12-24T13:38:33.406Z,97112.78
2022-12-24T13:40:59.764Z,97109.31
2022-12-24T13:43:26.165Z,97106.31
2022-12-24T13:45:52.618Z,97107.94
2022-12-24T13:48:19.244Z,97105.06
2022-12-24T13:50:45.686Z,97108.50
2022-12-24T13:53:12.055Z,97106.41
2022-12-24T13:55:38.456Z,97106.72
2022-12-24T13:58:04.923Z,97108.72
2022-12-24T14:00:31.420Z,97114.59
2022-12-24T14:03:00.808Z,97112.78
2022-12-24T14:05:27.218Z,97118.06
2022-12-24T14:07:53.703Z,97122.31
2022-12-24T14:10:20.030Z,97138.63
2022-12-24T14:12:46.741Z,97140.34
2022-12-24T14:15:13.146Z,97132.06
2022-12-24T14:17:40.049Z,97146.22
2022-12-24T14:20:06.512Z,97147.22
2022-12-24T14:22:32.992Z,97148.41
2022-12-24T14:24:59.414Z,97157.72
2022-12-24T14:27:25.755Z,97156.72
2022-12-24T14:29:52.126Z,97169.59
2022-12-24T14:32:18.536Z,97175.00
2022-12-24T14:34:44.992Z,97181.44
2022-12-24T14:37:11.394Z,97194.59
2022-12-24T14:39:37.763Z,97191.13
2022-12-24T14:42:04.144Z,97196.91
2022-12-24T14:44:35.515Z,97205.28
2022-12-24T14:47:02.450Z,97206.97
2022-12-24T14:49:28.989Z,97207.25
2022-12-24T14:51:55.401Z,97200.13
2022-12-24T14:54:24.416Z,97203.91
2022-12-24T14:56:50.816Z,97216.63
2022-12-24T14:59:17.295Z,97214.31
2022-12-24T15:01:43.741Z,97211.31
2022-12-24T15:04:10.307Z,97212.16
2022-12-24T15:06:36.874Z,97208.75
2022-12-24T15:09:03.289Z,97199.91
2022-12-24T15:11:29.839Z,97196.28
2022-12-24T15:13:56.356Z,97197.00
2022-12-24T15:16:22.776Z,97199.09
2022-12-24T15:18:49.186Z,97212.81
2022-12-24T15:21:15.755Z,97213.91
2022-12-24T15:23:42.149Z,97207.78
2022-12-24T15:26:08.586Z,97214.41
2022-12-24T15:28:34.956Z,97221.50
2022-12-24T15:31:01.329Z,97230.59
2022-12-24T15:33:27.749Z,97239.50
2022-12-24T15:35:54.152Z,97252.25
2022-12-24T15:38:20.660Z,97267.59
2022-12-24T15:40:46.998Z,97268.88
2022-12-24T15:43:13.401Z,97266.78
2022-12-24T15:45:39.958Z,97280.56
2022-12-24T15:48:06.431Z,97295.25
2022-12-24T15:50:32.777Z,97321.03
2022-12-24T15:53:20.077Z,97324.75
2022-12-24T15:55:45.872Z,97341.47
2022-12-24T15:58:12.264Z,97342.03
2022-12-24T16:00:38.639Z,97356.63
2022-12-24T16:03:05.303Z,97354.69
2022-12-24T16:05:32.000Z,97354.88
2022-12-24T16:08:07.666Z,97356.63
2022-12-24T16:10:34.185Z,97351.97
2022-12-24T16:13:00.570Z,97355.88
2022-12-24T16:15:27.201Z,97354.34
2022-12-24T16:17:53.614Z,97361.47
2022-12-24T16:20:20.016Z,97370.03
2022-12-24T16:22:46.414Z,97376.78
2022-12-24T16:25:12.769Z,97393.75
2022-12-24T16:27:39.343Z,97416.50
2022-12-24T16:30:05.697Z,97443.91
2022-12-24T16:32:32.282Z,97457.72
2022-12-24T16:34:58.778Z,97474.13
2022-12-24T16:37:25.175Z,97482.81
2022-12-24T16:39:51.564Z,97525.66
2022-12-24T16:42:37.163Z,97546.56
2022-12-24T16:45:03.517Z,97557.06
2022-12-24T16:47:33.609Z,97588.03
2022-12-24T16:50:11.031Z,97622.72
2022-12-24T16:52:37.421Z,97647.91
2022-12-24T16:55:03.809Z,97669.94
2022-12-24T16:57:30.219Z,97689.13
2022-12-24T16:59:56.709Z,97699.81
2022-12-24T17:02:23.187Z,97710.28
2022-12-24T17:04:49.747Z,97719.19
2022-12-24T17:07:16.089Z,97723.72
2022-12-24T17:09:42.464Z,97733.91
2022-12-24T17:12:08.864Z,97736.38
2022-12-24T17:14:35.242Z,97743.38
2022-12-24T17:17:01.663Z,97756.03
2022-12-24T17:19:28.075Z,97751.72
2022-12-24T17:21:54.435Z,97754.00
2022-12-24T17:24:20.845Z,97764.72
2022-12-24T17:26:48.287Z,97768.00
2022-12-24T17:29:14.678Z,97776.78
2022-12-24T17:31:42.818Z,97782.19
2022-12-24T17:34:09.416Z,97795.09
2022-12-24T17:36:35.749Z,97802.81
2022-12-24T17:39:02.138Z,97813.28
2022-12-24T17:41:28.503Z,97833.84
2022-12-24T17:43:54.880Z,97831.59
2022-12-24T17:46:22.356Z,97845.63
2022-12-24T17:48:48.843Z,97856.53
2022-12-24T17:51:15.272Z,97865.59
2022-12-24T17:53:41.710Z,97864.31
2022-12-24T17:56:08.119Z,97879.00
2022-12-24T17:58:34.534Z,97892.47
2022-12-24T18:01:01.303Z,97894.28
2022-12-24T18:03:27.739Z,97902.34
2022-12-24T18:05:54.259Z,97914.94
2022-12-24T18:08:20.737Z,97914.72
2022-12-24T18:10:47.208Z,97917.25
2022-12-24T18:13:19.106Z,97931.09
2022-12-24T18:15:45.819Z,97930.63
2022-12-24T18:18:12.333Z,97934.13
2022-12-24T18:20:46.029Z,97934.69
2022-12-24T18:23:13.247Z,97937.72
2022-12-24T18:25:39.598Z,97930.56
2022-12-24T18:28:09.130Z,97934.16
2022-12-24T18:30:35.464Z,97937.03
2022-12-24T18:33:01.848Z,97935.91
2022-12-24T18:35:28.333Z,97930.72
2022-12-24T18:37:54.745Z,97931.09
2022-12-24T18:40:21.174Z,97936.66
2022-12-24T18:42:47.747Z,97945.59
2022-12-24T18:45:14.108Z,97957.66
2022-12-24T18:47:40.543Z,97954.97
2022-12-24T18:50:06.890Z,97964.53
2022-12-24T18:52:33.320Z,97967.75
2022-12-24T18:54:59.726Z,97963.59
2022-12-24T18:57:26.110Z,97964.06
2022-12-24T18:59:52.509Z,97957.75
2022-12-24T19:02:19.069Z,97960.06
2022-12-24T19:04:45.532Z,97941.38
2022-12-24T19:07:11.870Z,97942.53
2022-12-24T19:09:38.243Z,97954.09
2022-12-24T19:12:04.634Z,97946.38
2022-12-24T19:14:31.170Z,97957.72
2022-12-24T19:16:57.645Z,97947.22
2022-12-24T19:19:24.580Z,97941.38
2022-12-24T19:21:51.659Z,97935.59
2022-12-24T19:24:18.067Z,97934.84
2022-12-24T19:26:44.436Z,97934.06
2022-12-24T19:29:10.823Z,97920.06
2022-12-24T19:31:37.280Z,97903.38
2022-12-24T19:34:03.736Z,97881.84
2022-12-24T19:36:30.100Z,97846.50
2022-12-24T19:38:56.689Z,97834.41
2022-12-24T19:41:23.036Z,97826.91
2022-12-24T19:43:49.436Z,97827.75
2022-12-24T19:46:16.062Z,97809.97
2022-12-24T19:48:42.471Z,97810.25
2022-12-24T19:51:09.031Z,97806.13
2022-12-24T19:53:35.510Z,97792.69
2022-12-24T19:56:01.927Z,97784.47
2022-12-24T19:58:28.399Z,97785.44
2022-12-24T20:00:54.953Z,97784.16
2022-12-24T20:03:21.414Z,97790.50
2022-12-24T20:05:47.828Z,97780.63
2022-12-24T20:08:14.188Z,97791.19
2022-12-24T20:10:40.625Z,97799.03
2022-12-24T20:13:06.996Z,97784.34
2022-12-24T20:15:33.359Z,97775.03
2022-12-24T20:17:59.731Z,97768.84
2022-12-24T20:20:26.094Z,97774.34
2022-12-24T20:22:52.477Z,97764.47
2022-12-24T20:25:18.825Z,97769.66
2022-12-24T20:27:45.197Z,97769.28
2022-12-24T20:30:11.541Z,97794.81
2022-12-24T20:32:37.902Z,97791.94
2022-12-24T20:35:04.364Z,97803.75
2022-12-24T20:37:30.775Z,97814.75
2022-12-24T20:39:57.190Z,97836.56
2022-12-24T20:42:23.543Z,97840.31
2022-12-24T20:44:50.050Z,97826.66
2022-12-24T20:47:16.455Z,97838.91
2022-12-24T20:49:42.975Z,97858.16
2022-12-24T20:52:09.403Z,97861.03
2022-12-24T20:54:35.749Z,97869.16
2022-12-24T20:57:02.105Z,97882.66
2022-12-24T20:59:28.508Z,97873.69
2022-12-24T21:01:55.005Z,97873.28
2022-12-24T21:04:21.606Z,97870.94
2022-12-24T21:06:47.966Z,97881.53
2022-12-24T21:09:14.429Z,97896.13
2022-12-24T21:11:49.970Z,97893.09
2022-12-24T21:14:16.398Z,97893.34
2022-12-24T21:16:42.788Z,97900.06
2022-12-24T21:19:09.227Z,97902.56
2022-12-24T21:21:35.767Z,97909.59
2022-12-24T21:24:02.221Z,97911.91
2022-12-24T21:26:28.584Z,97901.06
2022-12-24T21:28:55.009Z,97923.72
2022-12-24T21:31:21.536Z,97926.34
2022-12-24T21:33:48.046Z,97932.69
2022-12-24T21:36:14.456Z,97936.94
2022-12-24T21:38:40.903Z,97945.47
2022-12-24T21:41:07.314Z,97944.47
2022-12-24T21:43:34.397Z,97950.03
2022-12-24T21:46:00.820Z,97965.41
2022-12-24T21:48:45.870Z,97965.41
2022-12-24T21:51:12.254Z,97958.53
2022-12-24T21:53:57.573Z,97958.00
2022-12-24T21:56:24.190Z,97965.97
2022-12-24T21:58:50.587Z,97971.91
2022-12-24T22:01:17.184Z,97963.09
2022-12-24T22:03:43.859Z,97962.78
2022-12-24T22:06:30.265Z,97971.34
2022-12-24T22:09:16.031Z,97984.69
2022-12-24T22:11:54.006Z,97967.34
2022-12-24T22:14:21.672Z,97961.31
2022-12-24T22:16:48.233Z,97966.13
2022-12-24T22:19:14.715Z,97972.84
2022-12-24T22:21:43.528Z,97975.44
2022-12-24T22:24:12.272Z,97995.88
2022-12-24T22:26:38.667Z,98015.91
2022-12-24T22:29:05.261Z,97984.41
2022-12-24T22:31:32.574Z,97987.84
2022-12-24T22:33:59.041Z,97994.00
2022-12-24T22:36:25.402Z,97995.25
2022-12-24T22:38:52.915Z,97986.44
2022-12-24T22:41:19.309Z,97989.81
2022-12-24T22:43:45.776Z,97989.25
2022-12-24T22:46:12.268Z,97992.22
2022-12-24T22:48:41.244Z,97974.72
2022-12-24T22:51:07.738Z,97971.09
2022-12-24T22:53:34.288Z,97949.41
2022-12-24T22:56:00.749Z,97943.38
2022-12-24T22:58:27.275Z,97965.44
2022-12-24T23:00:53.680Z,97957.09
2022-12-24T23:03:20.471Z,97963.56
2022-12-24T23:05:46.938Z,97962.69
2022-12-24T23:08:13.332Z,97958.19
2022-12-24T23:10:39.711Z,97975.06
2022-12-24T23:13:25.119Z,97962.16
2022-12-24T23:15:51.534Z,97959.97
2022-12-24T23:18:17.947Z,97960.34
2022-12-24T23:20:47.430Z,97949.50
2022-12-24T23:23:13.920Z,97953.69
2022-12-24T23:25:40.309Z,97948.88
2022-12-24T23:28:06.732Z,97934.31
2022-12-24T23:30:33.241Z,97932.75
2022-12-24T23:32:59.620Z,97927.72
2022-12-24T23:35:26.058Z,97933.94
2022-12-24T23:37:52.499Z,97943.31
2022-12-24T23:40:18.857Z,97936.53
2022-12-24T23:42:45.249Z,97934.97
2022-12-24T23:45:14.134Z,97941.34
2022-12-24T23:47:40.653Z,97936.94
2022-12-24T23:50:07.065Z,97932.63
2022-12-24T23:52:33.430Z,97954.00
2022-12-24T23:54:59.889Z,97967.28
2022-12-24T23:57:26.360Z,97964.91
2022-12-24T23:59:52.792Z,97938.94
